createdAt,value
2022-09-12T00:03:20.431Z,11.40
2022-09-12T00:05:48.787Z,11.36
2022-09-12T00:08:16.883Z,11.51
2022-09-12T00:10:45.695Z,11.51
2022-09-12T00:13:13.533Z,11.41
2022-09-12T00:15:43.090Z,11.33
2022-09-12T00:18:14.551Z,11.36
2022-09-12T00:20:44.204Z,11.32
2022-09-12T00:23:12.938Z,11.36
2022-09-12T00:25:44.241Z,11.40
2022-09-12T00:28:12.160Z,11.32
2022-09-12T00:30:43.361Z,11.40
2022-09-12T00:33:11.220Z,11.45
2022-09-12T00:35:44.891Z,11.48
2022-09-12T00:38:12.940Z,11.58
2022-09-12T00:40:40.950Z,11.63
2022-09-12T00:43:14.218Z,11.59
2022-09-12T00:45:43.339Z,11.60
2022-09-12T00:48:23.675Z,11.59
2022-09-12T00:50:52.863Z,11.60
2022-09-12T00:53:20.655Z,11.47
2022-09-12T00:55:52.948Z,11.56
2022-09-12T00:58:24.079Z,11.51
2022-09-12T01:00:52.613Z,11.42
2022-09-12T01:03:23.223Z,11.56
2022-09-12T01:05:59.949Z,11.41
2022-09-12T01:08:28.923Z,11.37
2022-09-12T01:10:58.072Z,11.37
2022-09-12T01:13:26.272Z,11.34
2022-09-12T01:15:54.297Z,11.29
2022-09-12T01:18:29.766Z,11.11
2022-09-12T01:21:19.939Z,10.83
2022-09-12T01:24:04.320Z,11.13
2022-09-12T01:27:01.722Z,11.05
2022-09-12T01:29:59.278Z,10.95
2022-09-12T01:32:36.666Z,10.88
2022-09-12T01:35:16.564Z,10.86
2022-09-12T01:37:51.703Z,10.81
2022-09-12T01:40:25.232Z,10.80
2022-09-12T01:42:58.975Z,10.78
2022-09-12T01:45:31.445Z,10.72
2022-09-12T01:48:06.976Z,10.75
2022-09-12T01:50:41.376Z,10.64
2022-09-12T01:53:15.727Z,10.43
2022-09-12T01:55:47.032Z,10.50
2022-09-12T01:58:20.066Z,10.56
2022-09-12T02:00:53.133Z,10.51
2022-09-12T02:03:29.288Z,10.49
2022-09-12T02:06:05.345Z,10.46
2022-09-12T02:08:36.497Z,10.28
2022-09-12T02:11:09.415Z,10.34
2022-09-12T02:13:42.203Z,10.37
2022-09-12T02:16:12.413Z,10.39
2022-09-12T02:18:46.508Z,10.40
2022-09-12T02:21:15.312Z,10.37
2022-09-12T02:23:49.316Z,10.49
2022-09-12T02:26:22.319Z,10.53
2022-09-12T02:28:50.507Z,10.54
2022-09-12T02:31:24.216Z,10.50
2022-09-12T02:34:08.267Z,10.42
2022-09-12T02:36:45.003Z,10.47
2022-09-12T02:39:12.790Z,10.56
2022-09-12T02:41:40.729Z,10.54
2022-09-12T02:44:08.674Z,10.50
2022-09-12T02:46:42.218Z,10.59
2022-09-12T02:49:11.822Z,10.56
2022-09-12T02:51:39.906Z,10.63
2022-09-12T02:54:08.183Z,10.68
2022-09-12T02:56:36.240Z,10.68
2022-09-12T02:59:06.772Z,10.79
2022-09-12T03:02:04.689Z,10.75
2022-09-12T03:04:54.542Z,10.77
2022-09-12T03:07:35.551Z,10.79
2022-09-12T03:10:11.333Z,10.81
2022-09-12T03:12:49.300Z,10.86
2022-09-12T03:15:29.603Z,11.01
2022-09-12T03:18:14.588Z,11.09
2022-09-12T03:20:51.784Z,11.06
2022-09-12T03:23:27.931Z,11.11
2022-09-12T03:26:00.886Z,11.17
2022-09-12T03:28:28.704Z,11.03
2022-09-12T03:30:58.197Z,11.02
2022-09-12T03:33:26.903Z,11.11
2022-09-12T03:35:56.744Z,11.11
2022-09-12T03:38:24.566Z,11.18
2022-09-12T03:40:54.905Z,11.18
2022-09-12T03:43:22.820Z,11.10
2022-09-12T03:45:52.073Z,11.05
2022-09-12T03:48:19.865Z,11.12
2022-09-12T03:50:47.655Z,11.13
2022-09-12T03:53:17.517Z,11.00
2022-09-12T03:55:45.434Z,11.19
2022-09-12T03:58:13.268Z,11.15
2022-09-12T04:00:42.833Z,11.20
2022-09-12T04:03:10.579Z,11.18
2022-09-12T04:05:38.352Z,11.17
2022-09-12T04:08:06.081Z,11.22
2022-09-12T04:10:35.424Z,11.22
2022-09-12T04:13:03.174Z,11.17
2022-09-12T04:15:30.960Z,11.12
2022-09-12T04:18:01.400Z,11.12
2022-09-12T04:20:33.066Z,11.05
2022-09-12T04:23:00.831Z,10.99
2022-09-12T04:25:28.567Z,11.14
2022-09-12T04:27:57.750Z,11.11
2022-09-12T04:30:25.528Z,11.21
2022-09-12T04:32:53.342Z,11.16
2022-09-12T04:35:21.180Z,11.23
2022-09-12T04:37:48.906Z,11.14
2022-09-12T04:40:16.845Z,11.09
2022-09-12T04:42:44.679Z,11.23
2022-09-12T04:45:14.239Z,11.19
2022-09-12T04:47:41.971Z,11.22
2022-09-12T04:50:10.287Z,11.25
2022-09-12T04:52:38.064Z,11.28
2022-09-12T04:55:06.727Z,11.26
2022-09-12T04:57:34.740Z,11.30
2022-09-12T05:00:07.227Z,11.31
2022-09-12T05:02:36.642Z,11.33
2022-09-12T05:05:04.723Z,11.33
2022-09-12T05:07:32.505Z,11.18
2022-09-12T05:10:00.521Z,11.31
2022-09-12T05:12:28.944Z,11.41
2022-09-12T05:14:56.818Z,11.33
2022-09-12T05:17:24.617Z,11.49
2022-09-12T05:19:53.791Z,11.49
2022-09-12T05:22:21.544Z,11.47
2022-09-12T05:24:50.715Z,11.54
2022-09-12T05:27:18.873Z,11.54
2022-09-12T05:29:46.674Z,11.64
2022-09-12T05:32:14.566Z,11.60
2022-09-12T05:34:42.341Z,11.63
2022-09-12T05:37:11.532Z,11.69
2022-09-12T05:39:39.328Z,11.82
2022-09-12T05:42:07.615Z,11.87
2022-09-12T05:44:35.239Z,11.84
2022-09-12T05:47:03.174Z,11.96
2022-09-12T05:49:31.061Z,12.05
2022-09-12T05:51:58.859Z,12.08
2022-09-12T05:54:31.511Z,12.16
2022-09-12T05:56:59.996Z,12.28
2022-09-12T05:59:28.572Z,12.22
2022-09-12T06:01:56.665Z,12.34
2022-09-12T06:04:24.979Z,12.55
2022-09-12T06:06:52.785Z,12.59
2022-09-12T06:09:20.807Z,12.69
2022-09-12T06:11:49.991Z,12.73
2022-09-12T06:14:19.508Z,12.92
2022-09-12T06:16:48.582Z,13.18
2022-09-12T06:19:18.477Z,13.25
2022-09-12T06:21:47.666Z,13.51
2022-09-12T06:24:15.434Z,13.69
2022-09-12T06:26:43.782Z,13.90
2022-09-12T06:29:13.404Z,14.08
2022-09-12T06:31:43.081Z,14.27
2022-09-12T06:34:13.307Z,14.41
2022-09-12T06:36:43.712Z,14.43
2022-09-12T06:39:13.472Z,14.34
2022-09-12T06:41:44.227Z,14.35
2022-09-12T06:44:16.033Z,14.46
2022-09-12T06:46:44.297Z,14.40
2022-09-12T06:49:12.283Z,14.54
2022-09-12T06:51:41.971Z,14.59
2022-09-12T06:54:10.785Z,14.64
2022-09-12T06:56:38.634Z,14.60
2022-09-12T06:59:06.719Z,14.70
2022-09-12T07:01:35.943Z,14.67
2022-09-12T07:04:05.314Z,14.99
2022-09-12T07:06:38.418Z,15.11
2022-09-12T07:09:08.287Z,15.31
2022-09-12T07:11:38.709Z,15.50
2022-09-12T07:14:08.331Z,15.63
2022-09-12T07:16:37.657Z,15.81
2022-09-12T07:19:07.431Z,15.85
2022-09-12T07:21:39.570Z,15.98
2022-09-12T07:24:08.760Z,16.11
2022-09-12T07:26:36.934Z,15.99
2022-09-12T07:29:36.438Z,16.02
2022-09-12T07:32:08.118Z,16.20
2022-09-12T07:34:36.404Z,16.30
2022-09-12T07:37:04.715Z,16.28
2022-09-12T07:39:32.576Z,16.30
2022-09-12T07:42:00.510Z,16.44
2022-09-12T07:44:29.094Z,16.47
2022-09-12T07:46:57.268Z,16.51
2022-09-12T07:49:26.442Z,16.48
2022-09-12T07:51:54.273Z,16.51
2022-09-12T07:54:22.274Z,16.72
2022-09-12T07:56:50.064Z,16.80
2022-09-12T07:59:30.253Z,16.92
2022-09-12T08:02:05.736Z,16.97
2022-09-12T08:04:36.434Z,17.04
2022-09-12T08:07:04.257Z,17.04
2022-09-12T08:09:32.016Z,17.17
2022-09-12T08:12:03.659Z,17.07
2022-09-12T08:14:34.010Z,17.18
2022-09-12T08:17:01.781Z,17.25
2022-09-12T08:19:29.867Z,17.18
2022-09-12T08:22:00.121Z,17.31
2022-09-12T08:24:27.848Z,17.56
2022-09-12T08:26:55.655Z,17.67
2022-09-12T08:29:27.857Z,17.58
2022-09-12T08:31:57.378Z,17.78
2022-09-12T08:34:26.197Z,17.80
2022-09-12T08:36:54.703Z,17.95
2022-09-12T08:39:24.654Z,18.04
2022-09-12T08:42:01.564Z,18.17
2022-09-12T08:44:46.283Z,18.36
2022-09-12T08:47:23.253Z,18.61
2022-09-12T08:49:58.067Z,18.68
2022-09-12T08:52:31.980Z,18.87
2022-09-12T08:55:03.014Z,19.13
2022-09-12T08:57:30.864Z,19.49
2022-09-12T08:59:58.786Z,19.53
2022-09-12T09:02:53.872Z,19.87
2022-09-12T09:05:31.222Z,19.33
2022-09-12T09:08:37.408Z,19.52
2022-09-12T09:11:21.734Z,19.62
2022-09-12T09:14:22.016Z,19.52
2022-09-12T09:16:53.187Z,20.01
2022-09-12T09:19:24.889Z,20.19
2022-09-12T09:21:55.629Z,20.06
2022-09-12T09:24:29.694Z,19.82
2022-09-12T09:27:01.569Z,20.31
2022-09-12T09:29:34.870Z,20.36
2022-09-12T09:32:05.751Z,20.23
2022-09-12T09:34:33.835Z,20.28
2022-09-12T09:37:09.865Z,20.33
2022-09-12T09:39:51.146Z,20.73
2022-09-12T09:42:31.447Z,21.12
2022-09-12T09:45:01.840Z,20.59
2022-09-12T09:47:29.887Z,20.94
2022-09-12T09:49:57.918Z,21.32
2022-09-12T09:52:29.503Z,21.17
2022-09-12T09:55:00.656Z,21.46
2022-09-12T09:57:46.691Z,20.83
2022-09-12T10:00:39.058Z,20.93
2022-09-12T10:03:32.587Z,21.37
2022-09-12T10:06:02.613Z,21.35
2022-09-12T10:08:32.304Z,21.48
2022-09-12T10:11:05.837Z,21.33
2022-09-12T10:13:42.808Z,22.17
2022-09-12T10:16:22.131Z,22.70
2022-09-12T10:18:52.586Z,22.02
2022-09-12T10:21:31.388Z,22.51
2022-09-12T10:24:04.343Z,22.48
2022-09-12T10:26:36.026Z,21.94
2022-09-12T10:29:25.614Z,22.32
2022-09-12T10:31:56.367Z,22.66
2022-09-12T10:34:30.605Z,21.76
2022-09-12T10:37:05.173Z,22.48
2022-09-12T10:39:34.975Z,22.45
2022-09-12T10:42:03.581Z,22.84
2022-09-12T10:44:35.904Z,22.86
2022-09-12T10:47:21.975Z,22.72
2022-09-12T10:49:51.276Z,22.22
2022-09-12T10:52:23.255Z,22.60
2022-09-12T10:54:51.534Z,22.61
2022-09-12T10:57:40.352Z,23.14
2022-09-12T11:00:17.511Z,23.19
2022-09-12T11:03:07.686Z,22.76
2022-09-12T11:05:45.721Z,22.87
2022-09-12T11:08:24.151Z,23.02
2022-09-12T11:11:00.933Z,23.23
2022-09-12T11:13:47.936Z,23.04
2022-09-12T11:16:25.222Z,23.38
2022-09-12T11:19:14.833Z,23.77
2022-09-12T11:21:53.720Z,23.94
2022-09-12T11:24:48.296Z,23.93
2022-09-12T11:27:34.151Z,23.89
2022-09-12T11:30:06.947Z,23.85
2022-09-12T11:33:10.409Z,23.43
2022-09-12T11:35:49.754Z,23.68
2022-09-12T11:38:39.259Z,23.91
2022-09-12T11:41:10.823Z,24.40
2022-09-12T11:43:43.143Z,23.47
2022-09-12T11:46:19.259Z,24.29
2022-09-12T11:48:56.333Z,24.67
2022-09-12T11:51:28.858Z,24.15
2022-09-12T11:54:05.798Z,23.91
2022-09-12T11:56:37.173Z,23.84
2022-09-12T11:59:14.995Z,23.96
2022-09-12T12:01:48.762Z,24.38
2022-09-12T12:04:25.943Z,24.66
2022-09-12T12:07:02.869Z,25.02
2022-09-12T12:09:31.532Z,24.19
2022-09-12T12:12:05.058Z,23.17
2022-09-12T12:14:41.896Z,23.52
2022-09-12T12:17:16.728Z,23.96
2022-09-12T12:19:47.404Z,24.35
2022-09-12T12:22:21.510Z,24.71
2022-09-12T12:25:00.959Z,25.15
2022-09-12T12:27:51.170Z,24.55
2022-09-12T12:31:01.292Z,24.41
2022-09-12T12:34:03.316Z,25.26
2022-09-12T12:36:41.005Z,25.45
2022-09-12T12:39:46.981Z,25.10
2022-09-12T12:43:04.514Z,24.89
2022-09-12T12:45:50.715Z,25.34
2022-09-12T12:48:20.424Z,25.46
2022-09-12T12:50:48.587Z,25.82
2022-09-12T12:53:22.718Z,26.35
2022-09-12T12:55:53.065Z,26.50
2022-09-12T12:58:33.051Z,27.01
2022-09-12T13:01:11.207Z,27.01
2022-09-12T13:03:42.144Z,25.99
2022-09-12T13:06:22.489Z,26.85
2022-09-12T13:09:01.045Z,27.05
2022-09-12T13:11:32.987Z,27.39
2022-09-12T13:14:03.092Z,27.24
2022-09-12T13:16:35.970Z,25.71
2022-09-12T13:19:06.721Z,24.64
2022-09-12T13:21:34.879Z,25.16
2022-09-12T13:24:06.317Z,25.96
2022-09-12T13:26:37.009Z,25.53
2022-09-12T13:29:12.808Z,25.28
2022-09-12T13:31:45.362Z,25.44
2022-09-12T13:34:21.329Z,25.94
2022-09-12T13:37:16.267Z,25.74
2022-09-12T13:39:50.001Z,25.56
2022-09-12T13:42:42.556Z,26.02
2022-09-12T13:45:19.097Z,25.62
2022-09-12T13:47:49.201Z,24.70
2022-09-12T13:50:22.223Z,25.30
2022-09-12T13:52:53.618Z,25.52
2022-09-12T13:55:31.673Z,26.03
2022-09-12T13:58:02.095Z,26.36
2022-09-12T14:00:32.328Z,26.79
2022-09-12T14:03:18.368Z,26.95
2022-09-12T14:05:49.357Z,26.59
2022-09-12T14:08:17.272Z,25.58
2022-09-12T14:10:47.950Z,25.59
2022-09-12T14:13:32.293Z,25.81
2022-09-12T14:16:00.421Z,25.94
2022-09-12T14:18:30.167Z,26.10
2022-09-12T14:21:10.502Z,25.95
2022-09-12T14:23:42.658Z,26.28
2022-09-12T14:26:15.395Z,26.06
2022-09-12T14:28:47.383Z,26.27
2022-09-12T14:31:24.499Z,26.47
2022-09-12T14:33:54.079Z,26.39
2022-09-12T14:36:25.827Z,26.49
2022-09-12T14:38:56.804Z,26.56
2022-09-12T14:41:30.681Z,26.36
2022-09-12T14:44:01.305Z,26.31
2022-09-12T14:46:33.733Z,26.10
2022-09-12T14:49:03.420Z,25.91
2022-09-12T14:51:34.973Z,26.03
2022-09-12T14:54:02.945Z,26.20
2022-09-12T14:56:43.285Z,25.38
2022-09-12T14:59:30.267Z,25.39
2022-09-12T15:02:22.965Z,25.14
2022-09-12T15:04:53.423Z,24.83
2022-09-12T15:07:32.441Z,25.29
2022-09-12T15:10:01.305Z,25.28
2022-09-12T15:12:30.482Z,25.17
2022-09-12T15:15:03.349Z,24.82
2022-09-12T15:17:31.087Z,24.63
2022-09-12T15:19:58.818Z,24.43
2022-09-12T15:22:27.075Z,24.67
2022-09-12T15:24:56.376Z,24.65
2022-09-12T15:27:26.690Z,24.66
2022-09-12T15:29:56.293Z,24.76
2022-09-12T15:32:25.391Z,24.28
2022-09-12T15:34:53.851Z,24.54
2022-09-12T15:37:23.131Z,24.31
2022-09-12T15:39:51.619Z,24.18
2022-09-12T15:42:26.936Z,24.38
2022-09-12T15:45:00.569Z,24.34
2022-09-12T15:47:30.100Z,24.44
2022-09-12T15:49:57.824Z,24.24
2022-09-12T15:52:25.619Z,24.19
2022-09-12T15:54:53.385Z,24.24
2022-09-12T15:57:21.133Z,24.27
2022-09-12T15:59:48.819Z,24.26
2022-09-12T16:02:18.012Z,24.23
2022-09-12T16:04:46.370Z,23.99
2022-09-12T16:07:14.090Z,24.07
2022-09-12T16:09:41.882Z,24.06
2022-09-12T16:12:10.583Z,23.94
2022-09-12T16:14:38.380Z,24.02
2022-09-12T16:17:06.211Z,24.01
2022-09-12T16:19:35.437Z,23.96
2022-09-12T16:22:05.860Z,23.90
2022-09-12T16:24:33.672Z,23.75
2022-09-12T16:27:01.586Z,23.78
2022-09-12T16:29:29.494Z,23.62
2022-09-12T16:31:57.267Z,23.68
2022-09-12T16:34:25.017Z,23.62
2022-09-12T16:36:54.284Z,23.56
2022-09-12T16:39:22.032Z,23.47
2022-09-12T16:41:49.752Z,23.39
2022-09-12T16:44:17.555Z,23.44
2022-09-12T16:46:45.941Z,23.37
2022-09-12T16:49:13.950Z,23.23
2022-09-12T16:51:44.838Z,23.12
2022-09-12T16:54:15.306Z,23.00
2022-09-12T16:56:43.152Z,23.01
2022-09-12T16:59:16.155Z,23.01
2022-09-12T17:01:45.141Z,23.00
2022-09-12T17:04:13.129Z,22.90
2022-09-12T17:06:41.879Z,22.55
2022-09-12T17:09:11.193Z,22.46
2022-09-12T17:11:40.575Z,22.46
2022-09-12T17:14:10.238Z,22.46
2022-09-12T17:16:40.452Z,22.32
2022-09-12T17:19:09.481Z,22.26
2022-09-12T17:21:37.389Z,22.19
2022-09-12T17:24:05.446Z,22.11
2022-09-12T17:26:33.396Z,21.76
2022-09-12T17:29:03.242Z,21.58
2022-09-12T17:31:31.306Z,21.41
2022-09-12T17:33:59.659Z,21.23
2022-09-12T17:36:28.688Z,21.08
2022-09-12T17:38:56.520Z,20.83
2022-09-12T17:41:27.376Z,20.67
2022-09-12T17:43:57.289Z,20.49
2022-09-12T17:46:31.911Z,20.28
2022-09-12T17:49:00.911Z,20.20
2022-09-12T17:51:30.780Z,19.88
2022-09-12T17:54:01.085Z,19.69
2022-09-12T17:56:30.745Z,19.42
2022-09-12T17:58:59.462Z,19.34
2022-09-12T18:01:47.169Z,19.21
2022-09-12T18:04:15.678Z,19.00
2022-09-12T18:06:48.092Z,18.96
2022-09-12T18:09:17.699Z,18.79
2022-09-12T18:11:45.958Z,18.60
2022-09-12T18:14:14.471Z,18.42
2022-09-12T18:16:44.211Z,18.46
2022-09-12T18:19:12.297Z,18.32
2022-09-12T18:21:40.430Z,18.10
2022-09-12T18:24:08.424Z,18.03
2022-09-12T18:26:36.168Z,18.00
2022-09-12T18:29:03.959Z,17.83
2022-09-12T18:31:31.867Z,17.76
2022-09-12T18:34:01.446Z,17.62
2022-09-12T18:36:30.339Z,17.59
2022-09-12T18:38:59.609Z,17.62
2022-09-12T18:41:28.962Z,17.32
2022-09-12T18:43:57.877Z,17.43
2022-09-12T18:46:26.281Z,17.20
2022-09-12T18:48:55.494Z,17.10
2022-09-12T18:51:31.182Z,17.08
2022-09-12T18:54:00.636Z,17.05
2022-09-12T18:56:32.667Z,16.92
2022-09-12T18:59:02.093Z,16.89
2022-09-12T19:01:31.730Z,16.84
2022-09-12T19:04:00.927Z,16.72
2022-09-12T19:06:31.540Z,16.70
2022-09-12T19:09:03.855Z,16.64
2022-09-12T19:11:34.666Z,16.49
2022-09-12T19:14:02.503Z,16.52
2022-09-12T19:16:30.931Z,16.51
2022-09-12T19:19:00.151Z,16.60
2022-09-12T19:21:31.625Z,16.27
2022-09-12T19:24:01.260Z,16.59
2022-09-12T19:26:29.551Z,16.72
2022-09-12T19:28:57.604Z,16.69
2022-09-12T19:31:26.376Z,16.77
2022-09-12T19:33:54.295Z,16.75
2022-09-12T19:39:12.821Z,16.73
2022-09-12T19:41:40.685Z,16.70
2022-09-12T19:44:08.419Z,16.68
2022-09-12T19:46:36.216Z,16.76
2022-09-12T19:49:04.500Z,16.70
2022-09-12T19:51:32.229Z,16.72
2022-09-12T19:53:59.958Z,16.69
2022-09-12T19:56:29.389Z,16.57
2022-09-12T19:58:57.132Z,16.56
2022-09-12T20:01:28.277Z,16.44
2022-09-12T20:03:57.038Z,16.53
2022-09-12T20:06:24.807Z,16.50
2022-09-12T20:08:52.611Z,16.32
2022-09-12T20:11:22.055Z,16.40
2022-09-12T20:13:51.399Z,16.31
2022-09-12T20:16:22.359Z,16.41
2022-09-12T20:18:55.467Z,16.37
2022-09-12T20:21:31.000Z,16.42
2022-09-12T20:24:01.559Z,16.38
2022-09-12T20:26:29.334Z,16.30
2022-09-12T20:28:58.445Z,16.25
2022-09-12T20:31:26.669Z,16.36
2022-09-12T20:33:55.773Z,16.38
2022-09-12T20:36:24.158Z,16.33
2022-09-12T20:38:54.021Z,16.33
2022-09-12T20:41:22.698Z,16.31
2022-09-12T20:43:51.126Z,16.66
2022-09-12T20:46:22.143Z,16.79
2022-09-12T20:48:50.757Z,16.78
2022-09-12T20:51:18.895Z,16.90
2022-09-12T20:53:46.732Z,16.96
2022-09-12T20:56:15.125Z,17.01
2022-09-12T20:58:44.320Z,17.35
2022-09-12T21:01:16.536Z,17.38
2022-09-12T21:03:46.982Z,17.49
2022-09-12T21:06:16.992Z,17.62
2022-09-12T21:08:46.011Z,17.63
2022-09-12T21:11:14.411Z,17.63
2022-09-12T21:13:42.403Z,17.84
2022-09-12T21:16:13.199Z,17.86
2022-09-12T21:18:42.327Z,17.85
2022-09-12T21:21:12.916Z,17.84
2022-09-12T21:23:41.515Z,17.86
2022-09-12T21:26:09.774Z,17.87
2022-09-12T21:28:37.868Z,17.74
2022-09-12T21:31:05.861Z,17.85
2022-09-12T21:33:33.987Z,18.01
2022-09-12T21:36:03.883Z,18.00
2022-09-12T21:38:33.406Z,18.02
2022-09-12T21:41:06.209Z,17.84
2022-09-12T21:43:33.989Z,17.99
2022-09-12T21:46:02.417Z,18.00
2022-09-12T21:48:30.825Z,17.86
2022-09-12T21:50:58.714Z,17.71
2022-09-12T21:53:26.642Z,17.68
2022-09-12T21:55:55.791Z,17.72
2022-09-12T21:58:23.498Z,17.60
2022-09-12T22:00:51.921Z,17.57
2022-09-12T22:03:19.748Z,17.37
2022-09-12T22:05:52.337Z,17.40
2022-09-12T22:08:20.115Z,17.19
2022-09-12T22:10:47.872Z,17.19
2022-09-12T22:13:16.995Z,17.18
2022-09-12T22:15:45.387Z,17.07
2022-09-12T22:18:13.185Z,16.80
2022-09-12T22:20:40.913Z,16.64
2022-09-12T22:23:26.419Z,16.54
2022-09-12T22:25:55.494Z,16.61
2022-09-12T22:28:25.187Z,16.45
2022-09-12T22:30:54.369Z,16.39
2022-09-12T22:33:22.566Z,16.18
2022-09-12T22:35:50.339Z,16.22
2022-09-12T22:38:18.183Z,16.27
2022-09-12T22:40:45.969Z,16.21
2022-09-12T22:43:13.831Z,16.10
2022-09-12T22:45:43.361Z,16.02
2022-09-12T22:48:11.193Z,16.10
2022-09-12T22:50:38.926Z,16.29
2022-09-12T22:53:06.639Z,16.17
2022-09-12T22:55:34.530Z,16.18
2022-09-12T22:58:03.590Z,15.99
2022-09-12T23:00:31.458Z,16.03
2022-09-12T23:03:01.850Z,15.81
2022-09-12T23:05:29.747Z,15.97
2022-09-12T23:07:57.584Z,15.89
2022-09-12T23:10:27.559Z,16.01
2022-09-12T23:12:55.419Z,15.97
2022-09-12T23:15:23.183Z,15.96
2022-09-12T23:17:50.888Z,15.99
2022-09-12T23:20:20.026Z,15.87
2022-09-12T23:22:47.763Z,15.98
2022-09-12T23:25:15.525Z,15.91
2022-09-12T23:27:43.397Z,16.09
2022-09-12T23:30:13.013Z,16.09
2022-09-12T23:32:40.999Z,15.96
2022-09-12T23:35:08.936Z,16.00
2022-09-12T23:37:38.069Z,16.12
2022-09-12T23:40:09.068Z,16.17
2022-09-12T23:42:37.301Z,16.23
2022-09-12T23:45:05.445Z,16.25
2022-09-12T23:47:33.201Z,16.21
2022-09-12T23:50:00.981Z,16.31
2022-09-12T23:52:29.671Z,16.41
2022-09-12T23:54:58.796Z,16.34
2022-09-12T23:57:26.530Z,16.31
2022-09-12T23:59:54.273Z,16.44
